createdAt,value
2018-12-12T08:08:18.336Z,6.00
2018-12-12T08:10:20.565Z,6.20
2018-12-12T08:12:22.873Z,6.03
2018-12-12T08:14:25.139Z,6.22
2018-12-12T08:16:27.347Z,6.25
2018-12-12T08:18:29.637Z,6.30
2018-12-12T08:20:32.458Z,5.95
2018-12-12T08:22:34.925Z,7.35
2018-12-12T08:24:38.180Z,6.65
2018-12-12T08:26:40.560Z,7.37
2018-12-12T08:28:42.796Z,7.60
2018-12-12T08:30:45.028Z,6.05
2018-12-12T08:32:47.441Z,12.37
2018-12-12T08:34:49.718Z,12.55
2018-12-12T08:36:52.023Z,11.55
2018-12-12T08:38:54.479Z,8.45
2018-12-12T08:40:56.701Z,7.83
2018-12-12T08:43:00.012Z,7.25
2018-12-12T08:45:08.103Z,7.55
2018-12-12T08:47:10.424Z,25.10
2018-12-12T08:49:12.648Z,38.45
2018-12-12T08:51:15.134Z,37.78
2018-12-12T08:53:17.474Z,21.33
2018-12-12T08:55:19.692Z,12.63
2018-12-12T08:57:22.142Z,9.23
2018-12-12T08:59:25.051Z,6.83
2018-12-12T09:01:27.492Z,6.08
2018-12-12T09:03:29.875Z,6.15
2018-12-12T09:05:32.465Z,6.83
2018-12-12T09:07:34.688Z,6.50
2018-12-12T09:09:37.688Z,7.30
2018-12-12T09:11:39.925Z,6.95
2018-12-12T09:13:42.308Z,11.03
2018-12-12T09:15:44.567Z,8.30
2018-12-12T09:17:47.324Z,6.83
2018-12-12T09:19:51.927Z,7.70
2018-12-12T09:21:54.383Z,6.67
2018-12-12T09:23:56.637Z,6.90
2018-12-12T09:25:58.857Z,7.37
2018-12-12T09:28:01.048Z,7.20
2018-12-12T09:30:03.996Z,6.40
2018-12-12T09:32:06.599Z,7.47
2018-12-12T09:34:08.818Z,7.65
2018-12-12T09:36:11.747Z,7.97
2018-12-12T09:38:14.096Z,7.65
2018-12-12T09:40:16.470Z,6.60
2018-12-12T09:42:18.816Z,6.25
2018-12-12T09:44:21.374Z,6.50
2018-12-12T09:46:23.669Z,5.87
2018-12-12T09:48:25.929Z,5.60
2018-12-12T09:50:28.409Z,5.87
2018-12-12T09:52:30.631Z,6.62
2018-12-12T09:54:32.881Z,6.50
2018-12-12T09:56:35.649Z,6.47
2018-12-12T09:58:37.931Z,6.17
2018-12-12T10:00:40.198Z,6.78
2018-12-12T10:02:42.681Z,7.03
2018-12-12T10:04:45.039Z,8.03
2018-12-12T10:06:47.392Z,7.60
2018-12-12T10:08:49.804Z,6.92
2018-12-12T10:10:54.249Z,7.60
2018-12-12T10:12:57.280Z,7.53
2018-12-12T10:15:01.062Z,8.85
2018-12-12T10:17:03.327Z,8.90
2018-12-12T10:19:05.574Z,7.65
2018-12-12T10:21:07.867Z,8.58
2018-12-12T10:23:10.080Z,7.12
2018-12-12T10:25:12.552Z,7.10
2018-12-12T10:27:14.904Z,8.78
2018-12-12T10:29:17.275Z,9.28
2018-12-12T10:31:19.621Z,8.73
2018-12-12T10:33:22.297Z,8.28
2018-12-12T10:35:24.974Z,7.53
2018-12-12T10:37:27.344Z,6.90
2018-12-12T10:39:30.127Z,6.78
2018-12-12T10:41:33.564Z,7.12
2018-12-12T10:43:35.823Z,6.87
2018-12-12T10:45:38.102Z,7.37
2018-12-12T10:47:40.339Z,6.85
2018-12-12T10:49:42.736Z,7.10
2018-12-12T10:51:46.350Z,7.05
2018-12-12T10:53:49.806Z,7.37
2018-12-12T10:55:52.160Z,6.70
2018-12-12T10:57:54.808Z,7.47
2018-12-12T10:59:57.060Z,6.92
2018-12-12T11:02:05.054Z,7.67
2018-12-12T11:04:07.482Z,8.23
2018-12-12T11:06:09.900Z,7.72
2018-12-12T11:08:12.463Z,7.35
2018-12-12T11:10:14.746Z,7.90
2018-12-12T11:12:17.018Z,7.95
2018-12-12T11:14:19.320Z,8.08
2018-12-12T11:16:21.560Z,7.60
2018-12-12T11:18:23.802Z,7.75
2018-12-12T11:20:26.246Z,7.92
2018-12-12T11:22:28.450Z,7.60
2018-12-12T11:24:30.813Z,8.88
2018-12-12T11:26:33.456Z,8.20
2018-12-12T11:28:35.731Z,9.65
2018-12-12T11:30:38.000Z,8.53
2018-12-12T11:32:40.242Z,7.67
2018-12-12T11:34:42.427Z,8.08
2018-12-12T11:36:44.655Z,7.95
2018-12-12T11:38:46.868Z,7.55
2018-12-12T11:40:49.782Z,7.50
2018-12-12T11:42:52.196Z,6.80
2018-12-12T11:45:07.057Z,8.38
2018-12-12T11:47:09.303Z,7.30
2018-12-12T11:49:11.522Z,7.65
2018-12-12T11:51:13.736Z,6.95
2018-12-12T11:53:15.933Z,7.45
2018-12-12T11:55:18.131Z,7.33
2018-12-12T11:57:20.683Z,7.62
2018-12-12T11:59:23.476Z,7.30
2018-12-12T12:01:25.695Z,7.55
2018-12-12T12:03:27.988Z,7.22
2018-12-12T12:05:30.402Z,7.65
2018-12-12T12:07:32.605Z,7.15
2018-12-12T12:09:34.789Z,7.30
2018-12-12T12:11:37.125Z,9.40
2018-12-12T12:13:39.373Z,8.53
2018-12-12T12:15:41.566Z,7.45
2018-12-12T12:17:43.765Z,6.55
2018-12-12T12:19:45.998Z,7.60
2018-12-12T12:21:48.215Z,7.65
2018-12-12T12:23:50.584Z,9.83
2018-12-12T12:25:52.829Z,9.35
2018-12-12T12:27:55.066Z,9.00
2018-12-12T12:29:57.289Z,8.30
2018-12-12T12:31:59.495Z,6.65
2018-12-12T12:34:03.305Z,8.45
2018-12-12T12:36:05.681Z,7.47
2018-12-12T12:38:07.921Z,7.22
2018-12-12T12:40:10.268Z,7.25
2018-12-12T12:42:12.517Z,7.97
2018-12-12T12:44:14.736Z,6.90
2018-12-12T12:46:17.000Z,7.20
2018-12-12T12:48:19.338Z,7.80
2018-12-12T12:50:21.533Z,7.08
2018-12-12T12:52:23.760Z,7.47
2018-12-12T12:54:26.318Z,6.92
2018-12-12T12:56:28.523Z,9.03
2018-12-12T12:58:30.725Z,7.33
2018-12-12T13:00:33.064Z,7.17
2018-12-12T13:02:35.264Z,6.30
2018-12-12T13:04:37.484Z,7.45
2018-12-12T13:06:39.717Z,7.72
2018-12-12T13:08:41.974Z,8.30
2018-12-12T13:10:44.419Z,7.30
2018-12-12T13:12:47.001Z,7.80
2018-12-12T13:14:49.237Z,6.87
2018-12-12T13:16:51.467Z,6.87
2018-12-12T13:18:54.124Z,6.67
2018-12-12T13:20:56.383Z,7.05
2018-12-12T13:22:58.802Z,7.05
2018-12-12T13:25:01.062Z,5.90
2018-12-12T13:27:03.414Z,6.20
2018-12-12T13:29:05.647Z,6.83
2018-12-12T13:31:07.873Z,7.10
2018-12-12T13:33:10.063Z,6.00
2018-12-12T13:35:12.266Z,6.00
2018-12-12T13:37:14.464Z,6.62
2018-12-12T13:39:16.670Z,6.97
2018-12-12T13:41:19.276Z,6.00
2018-12-12T13:43:21.505Z,6.45
2018-12-12T13:45:23.803Z,6.85
2018-12-12T13:47:26.251Z,6.20
2018-12-12T13:49:28.582Z,6.58
2018-12-12T13:51:30.817Z,7.20
2018-12-12T13:53:33.178Z,7.08
2018-12-12T13:55:35.582Z,7.67
2018-12-12T13:57:37.856Z,8.98
2018-12-12T13:59:40.301Z,7.85
2018-12-12T14:01:42.557Z,6.80
2018-12-12T14:03:44.868Z,5.75
2018-12-12T14:05:47.391Z,5.97
2018-12-12T14:07:49.659Z,6.28
2018-12-12T14:09:51.921Z,5.20
2018-12-12T14:11:54.491Z,6.28
2018-12-12T14:13:56.706Z,6.08
2018-12-12T14:15:58.991Z,6.40
2018-12-12T14:18:01.372Z,6.17
2018-12-12T14:20:03.984Z,7.45
2018-12-12T14:22:06.235Z,5.80
2018-12-12T14:24:08.554Z,6.35
2018-12-12T14:26:10.848Z,5.67
2018-12-12T14:28:13.074Z,6.15
2018-12-12T14:30:15.368Z,7.42
2018-12-12T14:32:17.580Z,6.80
2018-12-12T14:34:19.945Z,6.60
2018-12-12T14:36:22.164Z,5.40
2018-12-12T14:38:24.404Z,7.42
2018-12-12T14:40:28.113Z,7.97
2018-12-12T15:40:42.119Z,6.30
2018-12-12T15:42:44.329Z,6.03
2018-12-12T15:44:46.482Z,6.83
2018-12-12T15:46:48.672Z,8.18
2018-12-12T15:48:50.871Z,6.20
2018-12-12T15:50:53.084Z,6.90
2018-12-12T15:52:55.382Z,6.35
2018-12-12T15:54:57.575Z,6.67
2018-12-12T15:56:59.877Z,6.50
2018-12-12T15:59:02.268Z,5.95
2018-12-12T16:01:04.551Z,7.08
2018-12-12T16:03:06.924Z,7.50
2018-12-12T16:05:09.111Z,6.70
2018-12-12T16:07:11.290Z,7.15
2018-12-12T16:09:13.767Z,7.00
2018-12-12T16:11:15.965Z,6.50
2018-12-12T16:13:18.189Z,6.62
2018-12-12T16:15:20.612Z,6.47
2018-12-12T16:17:22.791Z,6.50
2018-12-12T16:19:25.169Z,6.00
2018-12-12T16:21:27.473Z,6.00
2018-12-12T16:23:29.740Z,6.37
2018-12-12T16:25:31.904Z,6.42
2018-12-12T16:27:34.239Z,5.65
2018-12-12T16:29:36.415Z,6.90
2018-12-12T16:31:38.599Z,6.00
2018-12-12T16:33:40.827Z,6.00
2018-12-12T16:35:43.020Z,6.60
2018-12-12T16:37:45.183Z,6.22
2018-12-12T16:39:47.860Z,6.45
2018-12-12T16:41:50.255Z,5.80
2018-12-12T16:43:52.431Z,6.35
2018-12-12T16:45:57.899Z,6.92
2018-12-12T16:48:01.289Z,6.47
2018-12-12T16:50:03.851Z,6.62
2018-12-12T16:52:05.988Z,6.37
2018-12-12T16:54:08.167Z,5.90
2018-12-12T16:56:10.397Z,6.95
2018-12-12T16:58:12.560Z,6.87
2018-12-12T17:00:14.743Z,7.80
2018-12-12T17:02:16.897Z,6.80
2018-12-12T17:04:19.047Z,6.83
2018-12-12T17:06:21.259Z,6.95
2018-12-12T17:08:23.425Z,6.90
2018-12-12T17:10:25.577Z,8.05
2018-12-12T17:12:27.760Z,7.10
2018-12-12T17:14:29.981Z,7.35
2018-12-12T17:16:32.141Z,6.62
2018-12-12T17:18:34.342Z,6.15
2018-12-12T17:20:36.479Z,7.35
2018-12-12T17:22:38.640Z,6.85
2018-12-12T17:24:40.982Z,6.17
2018-12-12T17:26:43.164Z,6.60
2018-12-12T17:28:45.314Z,7.17
2018-12-12T17:30:47.803Z,7.92
2018-12-12T17:32:49.946Z,6.35
2018-12-12T17:34:52.223Z,6.87
2018-12-12T17:36:54.384Z,6.45
2018-12-12T17:38:56.604Z,6.72
2018-12-12T17:40:58.780Z,8.25
2018-12-12T17:43:00.941Z,7.30
2018-12-12T17:45:03.632Z,6.35
2018-12-12T17:47:05.865Z,22.87
2018-12-12T17:49:08.047Z,29.32
2018-12-12T17:51:10.238Z,8.18
2018-12-12T17:53:12.397Z,6.25
2018-12-12T17:55:14.716Z,6.95
2018-12-12T17:57:16.920Z,6.92
2018-12-12T17:59:19.137Z,6.20
2018-12-12T18:01:21.361Z,6.78
2018-12-12T18:03:23.566Z,7.87
2018-12-12T18:05:25.736Z,8.65
2018-12-12T18:07:28.256Z,8.10
2018-12-12T18:09:30.475Z,7.95
2018-12-12T18:11:32.748Z,6.75
2018-12-12T18:13:35.021Z,7.00
2018-12-12T18:15:37.187Z,5.95
2018-12-12T18:17:39.489Z,5.90
2018-12-12T18:19:42.134Z,5.87
2018-12-12T18:21:44.332Z,5.60
2018-12-12T18:23:46.645Z,7.10
2018-12-12T18:25:48.979Z,7.25
2018-12-12T18:27:51.168Z,5.65
2018-12-12T18:29:53.341Z,6.30
2018-12-12T18:31:56.226Z,6.55
2018-12-12T18:33:58.427Z,6.42
2018-12-12T18:36:00.630Z,6.67
2018-12-12T18:38:03.265Z,6.15
2018-12-12T18:40:05.653Z,6.50
2018-12-12T18:42:07.956Z,6.30
2018-12-12T18:44:10.194Z,6.92
2018-12-12T18:46:12.378Z,6.85
2018-12-12T18:48:14.754Z,7.08
2018-12-12T18:50:17.277Z,6.30
2018-12-12T18:52:19.491Z,6.37
2018-12-12T18:54:21.662Z,6.65
2018-12-12T18:56:24.175Z,6.67
2018-12-12T18:58:26.380Z,6.08
2018-12-12T19:00:28.635Z,5.85
2018-12-12T19:02:30.833Z,6.03
2018-12-12T19:04:34.237Z,7.05
2018-12-12T19:06:36.918Z,9.05
2018-12-12T19:08:39.146Z,9.33
2018-12-12T20:27:16.468Z,5.55
2018-12-12T20:29:20.065Z,5.25
2018-12-12T20:31:23.653Z,5.87
2018-12-12T20:35:48.194Z,5.65
2018-12-12T20:37:51.366Z,5.00
2018-12-12T20:39:53.619Z,6.92
2018-12-12T20:42:01.730Z,4.80
2018-12-12T20:44:03.984Z,5.30
2018-12-12T20:46:06.155Z,6.75
2018-12-12T20:48:08.356Z,5.40
2018-12-12T20:50:11.128Z,4.85
2018-12-12T20:52:13.336Z,5.87
2018-12-12T20:54:15.566Z,4.60
2018-12-12T20:56:18.188Z,4.87
2018-12-12T20:58:28.672Z,5.03
2018-12-12T21:00:30.948Z,5.30
2018-12-12T21:02:33.175Z,5.35
2018-12-12T21:04:35.376Z,5.12
2018-12-12T21:06:37.662Z,5.40
2018-12-12T21:08:40.039Z,5.55
2018-12-12T21:10:42.362Z,5.65
2018-12-12T21:12:45.669Z,5.85
2018-12-12T21:14:48.103Z,5.90
2018-12-12T21:16:50.652Z,4.67
2018-12-12T21:18:52.839Z,5.05
2018-12-12T21:20:55.026Z,5.22
2018-12-12T21:22:57.292Z,5.28
2018-12-12T21:24:59.565Z,4.58
2018-12-12T21:27:01.969Z,4.80
2018-12-12T21:29:04.338Z,5.05
2018-12-12T21:31:06.576Z,5.08
2018-12-12T21:33:08.773Z,6.00
2018-12-12T21:35:10.949Z,5.10
2018-12-12T21:37:13.317Z,7.45
2018-12-12T21:39:15.558Z,8.78
2018-12-12T21:41:17.832Z,5.62
2018-12-12T21:43:20.032Z,5.10
2018-12-12T21:45:22.331Z,5.25
2018-12-12T21:47:24.531Z,5.95
2018-12-12T21:49:26.844Z,5.95
2018-12-12T21:51:29.114Z,5.30
2018-12-12T21:53:31.328Z,5.58
2018-12-12T21:55:33.663Z,5.53
2018-12-12T21:57:35.886Z,4.97
2018-12-12T21:59:38.081Z,5.30
2018-12-12T22:01:40.345Z,5.00
2018-12-12T22:03:42.608Z,5.17
2018-12-12T22:05:45.496Z,4.50
2018-12-12T22:07:47.723Z,4.90
2018-12-12T22:09:50.210Z,4.62
2018-12-12T22:11:52.547Z,5.83
2018-12-12T22:13:54.744Z,5.70
2018-12-12T22:15:57.017Z,5.60
2018-12-12T22:17:59.567Z,5.75
2018-12-12T22:20:02.161Z,5.53
2018-12-12T22:22:04.537Z,5.45
2018-12-12T22:24:06.714Z,5.60
2018-12-12T22:26:09.045Z,5.17
2018-12-12T22:28:11.313Z,6.00
2018-12-12T22:30:13.553Z,5.37
2018-12-12T22:32:15.838Z,5.10
2018-12-12T22:34:18.048Z,5.03
2018-12-12T22:36:20.248Z,5.12
2018-12-12T22:38:22.810Z,4.50
2018-12-12T22:40:25.121Z,6.05
2018-12-12T22:42:27.333Z,5.30
2018-12-12T22:44:29.691Z,4.90
2018-12-12T22:46:32.084Z,15.78
2018-12-12T22:48:34.293Z,30.00
2018-12-12T22:50:36.600Z,11.57
2018-12-12T22:52:39.430Z,6.08
2018-12-12T22:54:41.737Z,5.47
2018-12-12T22:56:43.923Z,4.95
2018-12-12T22:58:46.127Z,4.95
2018-12-12T23:00:54.213Z,4.72
2018-12-12T23:02:56.472Z,5.10
2018-12-12T23:04:58.963Z,4.30
2018-12-12T23:07:01.126Z,4.80
2018-12-12T23:09:06.953Z,4.70
2018-12-12T23:11:09.668Z,5.00
2018-12-12T23:13:11.839Z,5.05
2018-12-12T23:15:14.078Z,4.40
2018-12-12T23:17:16.248Z,5.45
2018-12-12T23:19:18.468Z,5.20
2018-12-12T23:21:20.637Z,5.50
2018-12-12T23:23:22.794Z,4.97
2018-12-12T23:25:25.019Z,4.97
2018-12-12T23:27:27.298Z,5.78
2018-12-12T23:29:29.460Z,5.35
2018-12-12T23:31:31.732Z,5.50
2018-12-12T23:33:33.893Z,5.47
2018-12-12T23:35:36.078Z,5.05
2018-12-12T23:37:38.257Z,5.42
2018-12-12T23:39:40.396Z,5.50
2018-12-12T23:41:42.592Z,5.35
2018-12-12T23:43:45.008Z,5.85
2018-12-12T23:45:47.192Z,5.60
2018-12-12T23:47:49.459Z,6.58
2018-12-12T23:49:51.632Z,6.37
2018-12-12T23:51:53.792Z,5.97
2018-12-12T23:53:55.993Z,6.80
2018-12-12T23:55:58.641Z,6.12
2018-12-12T23:58:00.808Z,6.30
